Friedman Memorial Airport Hailey US
ICAO: KSUN
IATA: SUN
Category: Medium
Scheduled Services: Yes

Elevation: 5318 ft
TransAlt. 18000 ft.

Airport Communications:
ATIS:128.225
AWOS:128.225
SALT LAKE CITY CNTR:118.05
CTAF:125.6
GND:121.7
BOISE RDO:122.4
HAILEY TWR:125.6
UNICOM:122.95

KSUN Zoom In..

Runways:

(A) RW 13 length 7550 ft width 100 ft
---- / hdg 129

(B) RW 31 length 7550 ft width 100 ft
---- / hdg 309

Location; KSUN
Day. 20 / Time. 10.15 Zulu
* Altimeter: 30.01
* Temperature: 06° c. 42.8°f.
* Wind from: 340° Speed 06 kn.
Dewpoint: -04° c.
Visibility: 10 Statute Miles.
Clouds: Clear (automated report).

KSUN 201015Z AUTO 34006KT 10SM CLR 06/M04 A3001 RMK AO2


Wind From 340°
Speed 06 kn.

  YouTube Music Video
 
jpsmedia.com for Web Design  worldairports.se 2018   terms of use